sensor_id;sensor_type;location;lat;lon;timestamp;P1;durP1;ratioP1;P2;durP2;ratioP2
23567;SDS011;11962;50.838;4.430;2024-01-30T00:01:58;10.18;;;4.45;;
23567;SDS011;11962;50.838;4.430;2024-01-30T00:04:23;7.28;;;4.25;;
23567;SDS011;11962;50.838;4.430;2024-01-30T00:06:50;7.45;;;4.50;;
23567;SDS011;11962;50.838;4.430;2024-01-30T00:09:18;8.13;;;4.45;;
23567;SDS011;11962;50.838;4.430;2024-01-30T00:11:44;6.45;;;3.95;;
23567;SDS011;11962;50.838;4.430;2024-01-30T00:14:10;8.70;;;4.65;;
23567;SDS011;11962;50.838;4.430;2024-01-30T00:16:36;6.63;;;4.20;;
23567;SDS011;11962;50.838;4.430;2024-01-30T00:19:02;8.65;;;4.43;;
23567;SDS011;11962;50.838;4.430;2024-01-30T00:21:28;7.47;;;4.43;;
23567;SDS011;11962;50.838;4.430;2024-01-30T00:23:54;6.13;;;4.00;;
23567;SDS011;11962;50.838;4.430;2024-01-30T00:26:20;8.10;;;4.65;;
23567;SDS011;11962;50.838;4.430;2024-01-30T00:28:46;9.43;;;4.45;;
23567;SDS011;11962;50.838;4.430;2024-01-30T00:31:11;6.90;;;4.45;;
23567;SDS011;11962;50.838;4.430;2024-01-30T00:33:40;6.97;;;4.20;;
23567;SDS011;11962;50.838;4.430;2024-01-30T00:36:07;7.28;;;4.10;;
23567;SDS011;11962;50.838;4.430;2024-01-30T00:38:33;6.93;;;4.03;;
23567;SDS011;11962;50.838;4.430;2024-01-30T00:40:59;7.32;;;4.18;;
23567;SDS011;11962;50.838;4.430;2024-01-30T00:43:25;7.50;;;4.40;;
23567;SDS011;11962;50.838;4.430;2024-01-30T00:45:51;7.00;;;4.22;;
23567;SDS011;11962;50.838;4.430;2024-01-30T00:48:20;6.88;;;4.20;;
23567;SDS011;11962;50.838;4.430;2024-01-30T00:50:46;7.10;;;3.92;;
23567;SDS011;11962;50.838;4.430;2024-01-30T00:53:11;6.47;;;4.15;;
23567;SDS011;11962;50.838;4.430;2024-01-30T00:55:37;9.95;;;4.25;;
23567;SDS011;11962;50.838;4.430;2024-01-30T00:58:03;7.65;;;4.43;;
23567;SDS011;11962;50.838;4.430;2024-01-30T01:00:30;7.47;;;4.20;;
23567;SDS011;11962;50.838;4.430;2024-01-30T01:02:57;4.95;;;3.88;;
23567;SDS011;11962;50.838;4.430;2024-01-30T01:05:23;6.53;;;3.72;;
23567;SDS011;11962;50.838;4.430;2024-01-30T01:07:49;7.68;;;4.22;;
23567;SDS011;11962;50.838;4.430;2024-01-30T01:10:15;8.50;;;4.38;;
23567;SDS011;11962;50.838;4.430;2024-01-30T01:12:42;8.25;;;4.10;;
23567;SDS011;11962;50.838;4.430;2024-01-30T01:15:08;6.38;;;4.30;;
23567;SDS011;11962;50.838;4.430;2024-01-30T01:20:03;12.48;;;4.80;;
23567;SDS011;11962;50.838;4.430;2024-01-30T01:22:32;7.00;;;4.13;;
23567;SDS011;11962;50.838;4.430;2024-01-30T01:24:59;10.05;;;4.43;;
23567;SDS011;11962;50.838;4.430;2024-01-30T01:27:25;8.60;;;4.53;;
23567;SDS011;11962;50.838;4.430;2024-01-30T01:29:51;7.20;;;4.20;;
23567;SDS011;11962;50.838;4.430;2024-01-30T01:32:17;5.47;;;3.78;;
23567;SDS011;11962;50.838;4.430;2024-01-30T01:34:43;7.38;;;4.20;;
23567;SDS011;11962;50.838;4.430;2024-01-30T01:37:09;6.25;;;4.18;;
23567;SDS011;11962;50.838;4.430;2024-01-30T01:39:35;6.68;;;4.07;;
23567;SDS011;11962;50.838;4.430;2024-01-30T01:42:01;7.97;;;3.67;;
23567;SDS011;11962;50.838;4.430;2024-01-30T01:44:27;5.55;;;3.60;;
23567;SDS011;11962;50.838;4.430;2024-01-30T01:46:53;5.55;;;3.97;;
23567;SDS011;11962;50.838;4.430;2024-01-30T01:49:20;6.45;;;3.90;;
23567;SDS011;11962;50.838;4.430;2024-01-30T01:51:47;5.30;;;3.90;;
23567;SDS011;11962;50.838;4.430;2024-01-30T01:54:14;6.80;;;4.10;;
23567;SDS011;11962;50.838;4.430;2024-01-30T01:56:41;6.47;;;3.70;;
23567;SDS011;11962;50.838;4.430;2024-01-30T01:59:08;6.28;;;4.03;;
23567;SDS011;11962;50.838;4.430;2024-01-30T02:01:34;8.15;;;4.40;;
23567;SDS011;11962;50.838;4.430;2024-01-30T02:04:02;8.02;;;4.07;;
23567;SDS011;11962;50.838;4.430;2024-01-30T02:06:28;9.63;;;4.25;;
23567;SDS011;11962;50.838;4.430;2024-01-30T02:08:54;5.97;;;3.75;;
23567;SDS011;11962;50.838;4.430;2024-01-30T02:11:20;5.43;;;4.00;;
23567;SDS011;11962;50.838;4.430;2024-01-30T02:13:47;5.57;;;4.15;;
23567;SDS011;11962;50.838;4.430;2024-01-30T02:16:13;7.88;;;4.35;;
23567;SDS011;11962;50.838;4.430;2024-01-30T02:18:38;6.97;;;4.25;;
23567;SDS011;11962;50.838;4.430;2024-01-30T02:21:10;4.95;;;3.85;;
23567;SDS011;11962;50.838;4.430;2024-01-30T02:23:37;10.57;;;4.25;;
23567;SDS011;11962;50.838;4.430;2024-01-30T02:26:04;7.90;;;4.30;;
23567;SDS011;11962;50.838;4.430;2024-01-30T02:28:30;7.72;;;4.22;;
23567;SDS011;11962;50.838;4.430;2024-01-30T02:30:56;5.88;;;3.65;;
23567;SDS011;11962;50.838;4.430;2024-01-30T02:33:21;5.72;;;3.65;;
23567;SDS011;11962;50.838;4.430;2024-01-30T02:35:47;6.35;;;3.95;;
23567;SDS011;11962;50.838;4.430;2024-01-30T02:38:13;8.63;;;4.22;;
23567;SDS011;11962;50.838;4.430;2024-01-30T02:40:40;7.60;;;4.13;;
23567;SDS011;11962;50.838;4.430;2024-01-30T02:43:06;8.07;;;4.07;;
23567;SDS011;11962;50.838;4.430;2024-01-30T02:45:32;8.05;;;4.47;;
23567;SDS011;11962;50.838;4.430;2024-01-30T02:47:57;9.10;;;4.20;;
23567;SDS011;11962;50.838;4.430;2024-01-30T02:50:23;7.80;;;3.97;;
23567;SDS011;11962;50.838;4.430;2024-01-30T02:52:49;4.72;;;3.83;;
23567;SDS011;11962;50.838;4.430;2024-01-30T02:55:15;7.85;;;3.63;;
23567;SDS011;11962;50.838;4.430;2024-01-30T02:57:43;6.00;;;3.88;;
23567;SDS011;11962;50.838;4.430;2024-01-30T03:00:08;6.90;;;4.07;;
23567;SDS011;11962;50.838;4.430;2024-01-30T03:02:35;5.57;;;3.75;;
23567;SDS011;11962;50.838;4.430;2024-01-30T03:05:01;7.00;;;3.83;;
23567;SDS011;11962;50.838;4.430;2024-01-30T03:07:29;7.68;;;4.03;;
23567;SDS011;11962;50.838;4.430;2024-01-30T03:09:54;6.03;;;3.83;;
23567;SDS011;11962;50.838;4.430;2024-01-30T03:12:21;5.57;;;3.80;;
23567;SDS011;11962;50.838;4.430;2024-01-30T03:14:47;6.97;;;3.78;;
23567;SDS011;11962;50.838;4.430;2024-01-30T03:17:13;7.50;;;4.30;;
23567;SDS011;11962;50.838;4.430;2024-01-30T03:19:39;5.78;;;3.85;;
23567;SDS011;11962;50.838;4.430;2024-01-30T03:22:04;9.80;;;4.00;;
23567;SDS011;11962;50.838;4.430;2024-01-30T03:24:30;7.65;;;4.03;;
23567;SDS011;11962;50.838;4.430;2024-01-30T03:26:56;8.63;;;4.07;;
23567;SDS011;11962;50.838;4.430;2024-01-30T03:29:21;8.00;;;3.88;;
23567;SDS011;11962;50.838;4.430;2024-01-30T03:31:47;5.75;;;4.28;;
23567;SDS011;11962;50.838;4.430;2024-01-30T03:34:13;5.15;;;3.70;;
23567;SDS011;11962;50.838;4.430;2024-01-30T03:36:39;7.45;;;3.97;;
23567;SDS011;11962;50.838;4.430;2024-01-30T03:39:04;6.35;;;4.07;;
23567;SDS011;11962;50.838;4.430;2024-01-30T03:41:31;5.72;;;3.50;;
23567;SDS011;11962;50.838;4.430;2024-01-30T03:43:57;5.50;;;3.80;;
23567;SDS011;11962;50.838;4.430;2024-01-30T03:46:23;7.10;;;3.90;;
23567;SDS011;11962;50.838;4.430;2024-01-30T03:48:49;10.25;;;3.97;;
23567;SDS011;11962;50.838;4.430;2024-01-30T03:51:15;7.43;;;3.65;;
23567;SDS011;11962;50.838;4.430;2024-01-30T03:53:41;8.57;;;4.32;;
23567;SDS011;11962;50.838;4.430;2024-01-30T03:56:08;7.75;;;4.15;;
23567;SDS011;11962;50.838;4.430;2024-01-30T03:58:34;4.97;;;3.90;;
23567;SDS011;11962;50.838;4.430;2024-01-30T04:00:59;7.07;;;3.90;;
23567;SDS011;11962;50.838;4.430;2024-01-30T04:03:25;5.95;;;3.75;;
23567;SDS011;11962;50.838;4.430;2024-01-30T04:05:51;7.43;;;3.88;;
23567;SDS011;11962;50.838;4.430;2024-01-30T04:08:18;7.22;;;3.60;;
23567;SDS011;11962;50.838;4.430;2024-01-30T04:10:43;5.63;;;3.60;;
23567;SDS011;11962;50.838;4.430;2024-01-30T04:13:09;6.60;;;4.22;;
23567;SDS011;11962;50.838;4.430;2024-01-30T04:15:35;6.65;;;3.88;;
23567;SDS011;11962;50.838;4.430;2024-01-30T04:18:01;6.45;;;3.53;;
23567;SDS011;11962;50.838;4.430;2024-01-30T04:20:27;5.93;;;4.10;;
23567;SDS011;11962;50.838;4.430;2024-01-30T04:22:53;11.23;;;4.47;;
23567;SDS011;11962;50.838;4.430;2024-01-30T04:25:18;7.22;;;3.88;;
23567;SDS011;11962;50.838;4.430;2024-01-30T04:27:44;6.00;;;3.92;;
23567;SDS011;11962;50.838;4.430;2024-01-30T04:30:10;7.68;;;4.10;;
23567;SDS011;11962;50.838;4.430;2024-01-30T04:32:36;11.93;;;4.50;;
23567;SDS011;11962;50.838;4.430;2024-01-30T04:35:02;8.55;;;4.40;;
23567;SDS011;11962;50.838;4.430;2024-01-30T04:37:28;6.45;;;4.20;;
23567;SDS011;11962;50.838;4.430;2024-01-30T04:39:54;5.15;;;3.90;;
23567;SDS011;11962;50.838;4.430;2024-01-30T04:42:20;6.60;;;4.05;;
23567;SDS011;11962;50.838;4.430;2024-01-30T04:44:46;9.80;;;4.75;;
23567;SDS011;11962;50.838;4.430;2024-01-30T04:47:11;5.80;;;4.07;;
23567;SDS011;11962;50.838;4.430;2024-01-30T04:49:40;6.20;;;4.22;;
23567;SDS011;11962;50.838;4.430;2024-01-30T04:52:06;9.50;;;4.45;;
23567;SDS011;11962;50.838;4.430;2024-01-30T04:54:33;6.90;;;4.45;;
23567;SDS011;11962;50.838;4.430;2024-01-30T04:57:02;10.50;;;3.92;;
23567;SDS011;11962;50.838;4.430;2024-01-30T04:59:28;7.80;;;4.00;;
23567;SDS011;11962;50.838;4.430;2024-01-30T05:01:54;10.23;;;4.20;;
23567;SDS011;11962;50.838;4.430;2024-01-30T05:04:19;8.40;;;4.50;;
23567;SDS011;11962;50.838;4.430;2024-01-30T05:06:45;6.13;;;4.13;;
23567;SDS011;11962;50.838;4.430;2024-01-30T05:09:11;10.30;;;4.47;;
23567;SDS011;11962;50.838;4.430;2024-01-30T05:11:40;10.65;;;4.60;;
23567;SDS011;11962;50.838;4.430;2024-01-30T05:14:07;7.30;;;4.72;;
23567;SDS011;11962;50.838;4.430;2024-01-30T05:16:33;7.45;;;4.60;;
23567;SDS011;11962;50.838;4.430;2024-01-30T05:18:59;7.03;;;4.10;;
23567;SDS011;11962;50.838;4.430;2024-01-30T05:21:25;6.97;;;4.03;;
23567;SDS011;11962;50.838;4.430;2024-01-30T05:23:51;7.78;;;4.38;;
23567;SDS011;11962;50.838;4.430;2024-01-30T05:26:17;6.45;;;4.15;;
23567;SDS011;11962;50.838;4.430;2024-01-30T05:28:43;5.80;;;4.18;;
23567;SDS011;11962;50.838;4.430;2024-01-30T05:31:13;9.25;;;4.40;;
23567;SDS011;11962;50.838;4.430;2024-01-30T05:33:38;7.95;;;4.78;;
23567;SDS011;11962;50.838;4.430;2024-01-30T05:36:05;8.65;;;4.60;;
23567;SDS011;11962;50.838;4.430;2024-01-30T05:38:31;7.63;;;4.53;;
23567;SDS011;11962;50.838;4.430;2024-01-30T05:40:57;7.93;;;4.43;;
23567;SDS011;11962;50.838;4.430;2024-01-30T05:43:23;8.65;;;4.53;;
23567;SDS011;11962;50.838;4.430;2024-01-30T05:45:49;7.63;;;4.80;;
23567;SDS011;11962;50.838;4.430;2024-01-30T05:48:16;6.32;;;4.28;;
23567;SDS011;11962;50.838;4.430;2024-01-30T05:50:42;8.45;;;4.78;;
23567;SDS011;11962;50.838;4.430;2024-01-30T05:53:08;11.00;;;4.80;;
23567;SDS011;11962;50.838;4.430;2024-01-30T05:55:34;9.05;;;4.53;;
23567;SDS011;11962;50.838;4.430;2024-01-30T05:57:59;5.75;;;4.40;;
23567;SDS011;11962;50.838;4.430;2024-01-30T06:00:25;8.93;;;4.82;;
23567;SDS011;11962;50.838;4.430;2024-01-30T06:02:51;5.97;;;4.40;;
23567;SDS011;11962;50.838;4.430;2024-01-30T06:05:16;5.63;;;4.40;;
23567;SDS011;11962;50.838;4.430;2024-01-30T06:07:42;7.93;;;4.47;;
23567;SDS011;11962;50.838;4.430;2024-01-30T06:10:08;6.90;;;4.68;;
23567;SDS011;11962;50.838;4.430;2024-01-30T06:12:34;6.78;;;4.60;;
23567;SDS011;11962;50.838;4.430;2024-01-30T06:15:00;5.68;;;4.10;;
23567;SDS011;11962;50.838;4.430;2024-01-30T06:17:27;6.57;;;4.28;;
23567;SDS011;11962;50.838;4.430;2024-01-30T06:19:53;5.90;;;4.18;;
23567;SDS011;11962;50.838;4.430;2024-01-30T06:22:18;8.05;;;4.75;;
23567;SDS011;11962;50.838;4.430;2024-01-30T06:24:44;8.32;;;4.95;;
23567;SDS011;11962;50.838;4.430;2024-01-30T06:27:13;9.55;;;5.22;;
23567;SDS011;11962;50.838;4.430;2024-01-30T06:29:39;7.75;;;4.78;;
23567;SDS011;11962;50.838;4.430;2024-01-30T06:32:05;9.68;;;5.22;;
23567;SDS011;11962;50.838;4.430;2024-01-30T06:34:31;6.22;;;4.35;;
23567;SDS011;11962;50.838;4.430;2024-01-30T06:36:57;6.88;;;4.53;;
23567;SDS011;11962;50.838;4.430;2024-01-30T06:39:23;8.75;;;5.28;;
23567;SDS011;11962;50.838;4.430;2024-01-30T06:41:48;8.25;;;5.15;;
23567;SDS011;11962;50.838;4.430;2024-01-30T06:44:14;9.68;;;5.22;;
23567;SDS011;11962;50.838;4.430;2024-01-30T06:46:40;9.48;;;5.38;;
23567;SDS011;11962;50.838;4.430;2024-01-30T06:49:06;7.57;;;4.72;;
23567;SDS011;11962;50.838;4.430;2024-01-30T06:51:31;8.75;;;4.80;;
23567;SDS011;11962;50.838;4.430;2024-01-30T06:53:57;8.50;;;5.00;;
23567;SDS011;11962;50.838;4.430;2024-01-30T06:56:23;9.40;;;4.75;;
23567;SDS011;11962;50.838;4.430;2024-01-30T06:58:49;7.90;;;4.63;;
23567;SDS011;11962;50.838;4.430;2024-01-30T07:01:15;8.43;;;4.88;;
23567;SDS011;11962;50.838;4.430;2024-01-30T07:03:42;11.15;;;5.78;;
23567;SDS011;11962;50.838;4.430;2024-01-30T07:06:08;10.85;;;5.72;;
23567;SDS011;11962;50.838;4.430;2024-01-30T07:08:35;7.63;;;5.07;;
23567;SDS011;11962;50.838;4.430;2024-01-30T07:11:02;11.52;;;5.40;;
23567;SDS011;11962;50.838;4.430;2024-01-30T07:13:28;8.90;;;4.88;;
23567;SDS011;11962;50.838;4.430;2024-01-30T07:15:54;7.60;;;5.10;;
23567;SDS011;11962;50.838;4.430;2024-01-30T07:18:19;7.05;;;4.57;;
23567;SDS011;11962;50.838;4.430;2024-01-30T07:20:45;9.90;;;4.93;;
23567;SDS011;11962;50.838;4.430;2024-01-30T07:23:12;7.35;;;5.20;;
23567;SDS011;11962;50.838;4.430;2024-01-30T07:25:41;9.35;;;5.00;;
23567;SDS011;11962;50.838;4.430;2024-01-30T07:28:07;6.97;;;4.72;;
23567;SDS011;11962;50.838;4.430;2024-01-30T07:30:37;12.13;;;5.80;;
23567;SDS011;11962;50.838;4.430;2024-01-30T07:33:03;9.27;;;5.38;;
23567;SDS011;11962;50.838;4.430;2024-01-30T07:35:29;7.65;;;5.18;;
23567;SDS011;11962;50.838;4.430;2024-01-30T07:37:55;9.65;;;5.30;;
23567;SDS011;11962;50.838;4.430;2024-01-30T07:40:22;15.75;;;5.63;;
23567;SDS011;11962;50.838;4.430;2024-01-30T07:42:48;9.27;;;5.32;;
23567;SDS011;11962;50.838;4.430;2024-01-30T07:45:14;9.10;;;4.97;;
23567;SDS011;11962;50.838;4.430;2024-01-30T07:47:40;11.30;;;5.18;;
23567;SDS011;11962;50.838;4.430;2024-01-30T07:50:06;9.77;;;4.85;;
23567;SDS011;11962;50.838;4.430;2024-01-30T07:52:32;9.77;;;5.40;;
23567;SDS011;11962;50.838;4.430;2024-01-30T07:54:58;13.68;;;5.75;;
23567;SDS011;11962;50.838;4.430;2024-01-30T07:57:24;14.60;;;5.28;;
23567;SDS011;11962;50.838;4.430;2024-01-30T07:59:50;13.48;;;5.85;;
23567;SDS011;11962;50.838;4.430;2024-01-30T08:02:15;16.17;;;5.63;;
23567;SDS011;11962;50.838;4.430;2024-01-30T08:04:41;17.38;;;6.20;;
23567;SDS011;11962;50.838;4.430;2024-01-30T08:07:07;15.45;;;5.88;;
23567;SDS011;11962;50.838;4.430;2024-01-30T08:09:33;10.57;;;5.35;;
23567;SDS011;11962;50.838;4.430;2024-01-30T08:11:58;9.27;;;5.43;;
23567;SDS011;11962;50.838;4.430;2024-01-30T08:14:24;12.43;;;5.88;;
23567;SDS011;11962;50.838;4.430;2024-01-30T08:16:51;17.65;;;5.63;;
23567;SDS011;11962;50.838;4.430;2024-01-30T08:19:16;9.38;;;5.22;;
23567;SDS011;11962;50.838;4.430;2024-01-30T08:21:42;14.80;;;5.68;;
23567;SDS011;11962;50.838;4.430;2024-01-30T08:24:08;15.27;;;5.68;;
23567;SDS011;11962;50.838;4.430;2024-01-30T08:26:34;11.88;;;5.90;;
23567;SDS011;11962;50.838;4.430;2024-01-30T08:29:00;13.35;;;5.50;;
23567;SDS011;11962;50.838;4.430;2024-01-30T08:31:26;12.68;;;5.32;;
23567;SDS011;11962;50.838;4.430;2024-01-30T08:33:52;16.70;;;6.32;;
23567;SDS011;11962;50.838;4.430;2024-01-30T08:36:19;9.23;;;5.60;;
23567;SDS011;11962;50.838;4.430;2024-01-30T08:38:44;14.38;;;5.80;;
23567;SDS011;11962;50.838;4.430;2024-01-30T08:41:10;14.68;;;5.47;;
23567;SDS011;11962;50.838;4.430;2024-01-30T08:43:36;14.73;;;5.25;;
23567;SDS011;11962;50.838;4.430;2024-01-30T08:46:02;16.33;;;6.32;;
23567;SDS011;11962;50.838;4.430;2024-01-30T08:48:28;12.25;;;6.15;;
23567;SDS011;11962;50.838;4.430;2024-01-30T08:50:54;14.73;;;5.97;;
23567;SDS011;11962;50.838;4.430;2024-01-30T08:53:20;12.93;;;6.20;;
23567;SDS011;11962;50.838;4.430;2024-01-30T08:55:46;11.70;;;6.10;;
23567;SDS011;11962;50.838;4.430;2024-01-30T08:58:12;12.75;;;6.13;;
23567;SDS011;11962;50.838;4.430;2024-01-30T09:00:37;14.50;;;6.38;;
23567;SDS011;11962;50.838;4.430;2024-01-30T09:03:03;10.75;;;5.90;;
23567;SDS011;11962;50.838;4.430;2024-01-30T09:05:29;12.18;;;5.65;;
23567;SDS011;11962;50.838;4.430;2024-01-30T09:07:55;11.18;;;6.18;;
23567;SDS011;11962;50.838;4.430;2024-01-30T09:10:21;16.25;;;6.03;;
23567;SDS011;11962;50.838;4.430;2024-01-30T09:12:47;11.98;;;6.03;;
23567;SDS011;11962;50.838;4.430;2024-01-30T09:15:13;11.07;;;5.90;;
23567;SDS011;11962;50.838;4.430;2024-01-30T09:17:39;15.27;;;6.35;;
23567;SDS011;11962;50.838;4.430;2024-01-30T09:20:05;12.52;;;6.15;;
23567;SDS011;11962;50.838;4.430;2024-01-30T09:22:31;9.77;;;6.43;;
23567;SDS011;11962;50.838;4.430;2024-01-30T09:24:57;16.70;;;6.32;;
23567;SDS011;11962;50.838;4.430;2024-01-30T09:27:23;12.15;;;6.60;;
23567;SDS011;11962;50.838;4.430;2024-01-30T09:29:49;13.18;;;5.95;;
23567;SDS011;11962;50.838;4.430;2024-01-30T09:32:15;11.90;;;6.68;;
23567;SDS011;11962;50.838;4.430;2024-01-30T09:34:42;13.27;;;6.77;;
23567;SDS011;11962;50.838;4.430;2024-01-30T09:37:08;13.52;;;7.07;;
23567;SDS011;11962;50.838;4.430;2024-01-30T09:39:34;11.80;;;5.88;;
23567;SDS011;11962;50.838;4.430;2024-01-30T09:42:05;14.55;;;7.43;;
23567;SDS011;11962;50.838;4.430;2024-01-30T09:44:39;12.00;;;6.40;;
23567;SDS011;11962;50.838;4.430;2024-01-30T09:47:08;16.65;;;6.97;;
23567;SDS011;11962;50.838;4.430;2024-01-30T09:49:35;16.50;;;7.20;;
23567;SDS011;11962;50.838;4.430;2024-01-30T09:52:02;14.73;;;6.93;;
23567;SDS011;11962;50.838;4.430;2024-01-30T09:54:32;20.25;;;7.38;;
23567;SDS011;11962;50.838;4.430;2024-01-30T09:56:58;18.75;;;7.53;;
23567;SDS011;11962;50.838;4.430;2024-01-30T09:59:24;15.07;;;7.97;;
23567;SDS011;11962;50.838;4.430;2024-01-30T10:01:50;18.15;;;8.63;;
23567;SDS011;11962;50.838;4.430;2024-01-30T10:04:16;16.23;;;7.70;;
23567;SDS011;11962;50.838;4.430;2024-01-30T10:06:42;14.00;;;8.40;;
23567;SDS011;11962;50.838;4.430;2024-01-30T10:09:08;17.33;;;7.68;;
23567;SDS011;11962;50.838;4.430;2024-01-30T10:11:38;14.60;;;7.35;;
23567;SDS011;11962;50.838;4.430;2024-01-30T10:14:04;21.70;;;8.13;;
23567;SDS011;11962;50.838;4.430;2024-01-30T10:16:29;13.80;;;8.07;;
23567;SDS011;11962;50.838;4.430;2024-01-30T10:18:55;15.57;;;7.22;;
23567;SDS011;11962;50.838;4.430;2024-01-30T10:21:21;16.92;;;8.52;;
23567;SDS011;11962;50.838;4.430;2024-01-30T10:23:47;13.75;;;7.88;;
23567;SDS011;11962;50.838;4.430;2024-01-30T10:26:15;18.90;;;7.65;;
23567;SDS011;11962;50.838;4.430;2024-01-30T10:28:42;15.52;;;7.43;;
23567;SDS011;11962;50.838;4.430;2024-01-30T10:31:08;13.98;;;7.32;;
23567;SDS011;11962;50.838;4.430;2024-01-30T10:33:34;15.18;;;7.57;;
23567;SDS011;11962;50.838;4.430;2024-01-30T10:36:01;13.98;;;6.90;;
23567;SDS011;11962;50.838;4.430;2024-01-30T10:38:32;11.73;;;7.20;;
23567;SDS011;11962;50.838;4.430;2024-01-30T10:40:59;17.60;;;7.72;;
23567;SDS011;11962;50.838;4.430;2024-01-30T10:43:32;14.27;;;8.05;;
23567;SDS011;11962;50.838;4.430;2024-01-30T10:46:06;15.38;;;7.13;;
23567;SDS011;11962;50.838;4.430;2024-01-30T10:48:38;19.63;;;6.82;;
23567;SDS011;11962;50.838;4.430;2024-01-30T10:51:09;16.10;;;7.90;;
23567;SDS011;11962;50.838;4.430;2024-01-30T10:53:36;10.43;;;6.65;;
23567;SDS011;11962;50.838;4.430;2024-01-30T10:56:02;14.50;;;6.30;;
23567;SDS011;11962;50.838;4.430;2024-01-30T10:58:29;9.82;;;5.25;;
23567;SDS011;11962;50.838;4.430;2024-01-30T11:00:55;16.30;;;5.68;;
23567;SDS011;11962;50.838;4.430;2024-01-30T11:03:22;11.50;;;5.15;;
23567;SDS011;11962;50.838;4.430;2024-01-30T11:05:49;11.90;;;5.05;;
23567;SDS011;11962;50.838;4.430;2024-01-30T11:08:22;19.13;;;5.82;;
23567;SDS011;11962;50.838;4.430;2024-01-30T11:10:49;13.50;;;5.70;;
23567;SDS011;11962;50.838;4.430;2024-01-30T11:13:15;11.20;;;5.03;;
23567;SDS011;11962;50.838;4.430;2024-01-30T11:15:41;11.25;;;5.15;;
23567;SDS011;11962;50.838;4.430;2024-01-30T11:18:07;9.48;;;4.75;;
23567;SDS011;11962;50.838;4.430;2024-01-30T11:20:32;8.55;;;3.95;;
23567;SDS011;11962;50.838;4.430;2024-01-30T11:23:01;9.93;;;4.07;;
23567;SDS011;11962;50.838;4.430;2024-01-30T11:25:31;7.50;;;3.80;;
23567;SDS011;11962;50.838;4.430;2024-01-30T11:27:57;11.45;;;3.85;;
23567;SDS011;11962;50.838;4.430;2024-01-30T11:30:24;9.35;;;3.58;;
23567;SDS011;11962;50.838;4.430;2024-01-30T11:33:06;13.55;;;2.90;;
23567;SDS011;11962;50.838;4.430;2024-01-30T11:35:43;6.70;;;2.63;;
23567;SDS011;11962;50.838;4.430;2024-01-30T11:38:10;6.68;;;2.35;;
23567;SDS011;11962;50.838;4.430;2024-01-30T11:40:38;5.30;;;1.73;;
23567;SDS011;11962;50.838;4.430;2024-01-30T11:43:05;5.13;;;1.58;;
23567;SDS011;11962;50.838;4.430;2024-01-30T11:45:32;6.47;;;1.52;;
23567;SDS011;11962;50.838;4.430;2024-01-30T11:47:59;4.00;;;2.03;;
23567;SDS011;11962;50.838;4.430;2024-01-30T11:50:28;6.72;;;1.67;;
23567;SDS011;11962;50.838;4.430;2024-01-30T11:53:04;9.52;;;1.80;;
23567;SDS011;11962;50.838;4.430;2024-01-30T11:55:30;4.22;;;1.35;;
23567;SDS011;11962;50.838;4.430;2024-01-30T11:57:59;4.20;;;1.58;;
23567;SDS011;11962;50.838;4.430;2024-01-30T12:00:25;3.13;;;1.25;;
23567;SDS011;11962;50.838;4.430;2024-01-30T12:02:51;5.93;;;1.42;;
23567;SDS011;11962;50.838;4.430;2024-01-30T12:05:24;5.05;;;1.05;;
23567;SDS011;11962;50.838;4.430;2024-01-30T12:07:50;2.50;;;0.80;;
23567;SDS011;11962;50.838;4.430;2024-01-30T12:10:16;3.90;;;1.20;;
23567;SDS011;11962;50.838;4.430;2024-01-30T12:12:44;2.25;;;0.80;;
23567;SDS011;11962;50.838;4.430;2024-01-30T12:15:17;3.47;;;0.73;;
23567;SDS011;11962;50.838;4.430;2024-01-30T12:17:46;4.38;;;1.08;;
23567;SDS011;11962;50.838;4.430;2024-01-30T12:20:13;4.18;;;0.80;;
23567;SDS011;11962;50.838;4.430;2024-01-30T12:22:41;3.70;;;0.85;;
23567;SDS011;11962;50.838;4.430;2024-01-30T12:25:08;4.75;;;0.70;;
23567;SDS011;11962;50.838;4.430;2024-01-30T12:27:38;5.05;;;0.85;;
23567;SDS011;11962;50.838;4.430;2024-01-30T12:30:08;2.75;;;0.90;;
23567;SDS011;11962;50.838;4.430;2024-01-30T12:32:41;6.88;;;1.02;;
23567;SDS011;11962;50.838;4.430;2024-01-30T12:35:12;4.38;;;0.73;;
23567;SDS011;11962;50.838;4.430;2024-01-30T12:37:38;2.20;;;0.50;;
23567;SDS011;11962;50.838;4.430;2024-01-30T12:40:04;1.92;;;0.75;;
23567;SDS011;11962;50.838;4.430;2024-01-30T12:42:34;3.20;;;0.93;;
23567;SDS011;11962;50.838;4.430;2024-01-30T12:45:01;3.15;;;0.75;;
23567;SDS011;11962;50.838;4.430;2024-01-30T12:47:28;4.00;;;0.90;;
23567;SDS011;11962;50.838;4.430;2024-01-30T12:49:53;2.40;;;0.80;;
23567;SDS011;11962;50.838;4.430;2024-01-30T12:52:20;3.08;;;0.70;;
23567;SDS011;11962;50.838;4.430;2024-01-30T12:54:46;1.40;;;0.80;;
23567;SDS011;11962;50.838;4.430;2024-01-30T12:57:15;7.88;;;1.08;;
23567;SDS011;11962;50.838;4.430;2024-01-30T12:59:42;3.15;;;0.80;;
23567;SDS011;11962;50.838;4.430;2024-01-30T13:02:08;2.15;;;0.93;;
23567;SDS011;11962;50.838;4.430;2024-01-30T13:04:34;1.80;;;0.75;;
23567;SDS011;11962;50.838;4.430;2024-01-30T13:07:00;3.38;;;0.80;;
23567;SDS011;11962;50.838;4.430;2024-01-30T13:09:26;4.25;;;1.00;;
23567;SDS011;11962;50.838;4.430;2024-01-30T13:11:52;10.75;;;1.13;;
23567;SDS011;11962;50.838;4.430;2024-01-30T13:14:18;5.28;;;1.02;;
23567;SDS011;11962;50.838;4.430;2024-01-30T13:16:44;3.47;;;0.75;;
23567;SDS011;11962;50.838;4.430;2024-01-30T13:19:10;3.78;;;0.80;;
23567;SDS011;11962;50.838;4.430;2024-01-30T13:21:36;5.78;;;0.65;;
23567;SDS011;11962;50.838;4.430;2024-01-30T13:24:02;9.32;;;1.27;;
23567;SDS011;11962;50.838;4.430;2024-01-30T13:26:28;2.92;;;0.88;;
23567;SDS011;11962;50.838;4.430;2024-01-30T13:28:56;4.47;;;1.02;;
23567;SDS011;11962;50.838;4.430;2024-01-30T13:31:22;4.38;;;1.05;;
23567;SDS011;11962;50.838;4.430;2024-01-30T13:33:47;3.63;;;0.85;;
23567;SDS011;11962;50.838;4.430;2024-01-30T13:36:14;7.78;;;1.10;;
23567;SDS011;11962;50.838;4.430;2024-01-30T13:38:39;10.75;;;1.20;;
23567;SDS011;11962;50.838;4.430;2024-01-30T13:41:05;8.68;;;1.27;;
23567;SDS011;11962;50.838;4.430;2024-01-30T13:43:31;5.10;;;1.13;;
23567;SDS011;11962;50.838;4.430;2024-01-30T13:45:57;5.28;;;0.93;;
23567;SDS011;11962;50.838;4.430;2024-01-30T13:48:23;8.88;;;1.13;;
23567;SDS011;11962;50.838;4.430;2024-01-30T13:50:48;7.05;;;1.05;;
23567;SDS011;11962;50.838;4.430;2024-01-30T13:53:15;3.28;;;0.98;;
23567;SDS011;11962;50.838;4.430;2024-01-30T13:55:40;3.50;;;0.90;;
23567;SDS011;11962;50.838;4.430;2024-01-30T13:58:06;11.90;;;1.17;;
23567;SDS011;11962;50.838;4.430;2024-01-30T14:00:33;5.13;;;1.30;;
23567;SDS011;11962;50.838;4.430;2024-01-30T14:02:59;5.45;;;1.00;;
23567;SDS011;11962;50.838;4.430;2024-01-30T14:05:25;7.85;;;1.20;;
23567;SDS011;11962;50.838;4.430;2024-01-30T14:07:52;4.78;;;1.10;;
23567;SDS011;11962;50.838;4.430;2024-01-30T14:10:18;5.72;;;1.33;;
23567;SDS011;11962;50.838;4.430;2024-01-30T14:12:44;2.92;;;1.08;;
23567;SDS011;11962;50.838;4.430;2024-01-30T14:15:12;4.32;;;1.05;;
23567;SDS011;11962;50.838;4.430;2024-01-30T14:17:40;6.93;;;1.30;;
23567;SDS011;11962;50.838;4.430;2024-01-30T14:20:06;4.93;;;0.75;;
23567;SDS011;11962;50.838;4.430;2024-01-30T14:22:33;6.70;;;1.27;;
23567;SDS011;11962;50.838;4.430;2024-01-30T14:25:00;3.53;;;0.95;;
23567;SDS011;11962;50.838;4.430;2024-01-30T14:27:28;4.95;;;0.90;;
23567;SDS011;11962;50.838;4.430;2024-01-30T14:29:54;5.07;;;1.13;;
23567;SDS011;11962;50.838;4.430;2024-01-30T14:32:20;9.10;;;0.90;;
23567;SDS011;11962;50.838;4.430;2024-01-30T14:34:46;3.83;;;0.88;;
23567;SDS011;11962;50.838;4.430;2024-01-30T14:37:12;2.15;;;1.00;;
23567;SDS011;11962;50.838;4.430;2024-01-30T14:39:38;5.20;;;1.00;;
23567;SDS011;11962;50.838;4.430;2024-01-30T14:42:05;5.35;;;1.13;;